createdAt,value
2023-03-31T19:03:45.392Z,83.70
2023-03-31T19:06:17.835Z,81.00
2023-03-31T19:08:49.735Z,76.60
2023-03-31T19:11:21.294Z,130.10
2023-03-31T19:13:55.513Z,137.20
2023-03-31T19:16:27.607Z,104.00
2023-03-31T19:18:59.456Z,99.20
2023-03-31T19:21:32.704Z,78.50
2023-03-31T19:24:06.012Z,73.20
2023-03-31T19:26:37.991Z,66.90
2023-03-31T19:29:09.600Z,78.50
2023-03-31T19:31:41.596Z,108.00
2023-03-31T19:34:14.148Z,76.20
2023-03-31T19:36:46.285Z,83.80
2023-03-31T19:39:18.155Z,98.60
2023-03-31T19:41:49.854Z,70.60
2023-03-31T19:44:21.831Z,106.80
2023-03-31T19:46:53.399Z,79.00
2023-03-31T19:49:24.958Z,100.80
2023-03-31T19:51:56.618Z,130.60
2023-03-31T19:54:28.967Z,143.30
2023-03-31T19:57:00.609Z,75.60
2023-03-31T19:59:32.282Z,67.90
2023-03-31T20:02:05.578Z,101.10
2023-03-31T20:04:37.640Z,125.70
2023-03-31T20:07:10.998Z,71.10
2023-03-31T20:09:42.895Z,92.30
2023-03-31T20:12:14.649Z,66.10
2023-03-31T20:14:46.327Z,63.40
2023-03-31T20:17:20.055Z,62.10
2023-03-31T20:22:23.201Z,46.30
2023-03-31T20:24:54.917Z,53.50
2023-03-31T20:27:26.634Z,48.10
2023-03-31T20:29:58.246Z,32.20
2023-03-31T20:32:30.063Z,66.20
2023-03-31T20:35:02.935Z,38.80
2023-03-31T20:37:35.413Z,73.90
2023-03-31T20:40:08.073Z,42.40
2023-03-31T20:42:39.897Z,77.40
2023-03-31T20:45:11.899Z,118.70
2023-03-31T20:47:44.893Z,110.30
2023-03-31T20:50:19.054Z,114.60
2023-03-31T20:52:51.920Z,66.40
2023-03-31T20:55:27.484Z,109.90
2023-03-31T20:57:59.132Z,98.00
2023-03-31T21:00:30.850Z,92.90
2023-03-31T21:03:03.336Z,123.70
2023-03-31T21:05:48.747Z,86.00
2023-03-31T21:08:24.003Z,125.60
2023-03-31T21:11:04.748Z,147.50
2023-03-31T21:13:36.443Z,78.20
2023-03-31T21:16:08.466Z,149.90
2023-03-31T21:18:40.136Z,111.40
2023-03-31T21:21:15.022Z,93.20
2023-03-31T21:23:47.428Z,58.40
2023-03-31T21:26:20.076Z,62.40
2023-03-31T21:28:54.733Z,161.70
2023-03-31T21:31:28.754Z,68.00
2023-03-31T21:34:02.502Z,71.00
2023-03-31T21:39:06.599Z,50.90
2023-03-31T21:41:41.138Z,50.20
2023-03-31T21:44:14.409Z,70.40
2023-03-31T21:46:58.178Z,67.40
2023-03-31T21:49:30.059Z,50.10
2023-03-31T21:52:01.726Z,39.70
2023-03-31T21:54:33.407Z,46.70
2023-03-31T21:57:04.974Z,41.10
2023-03-31T21:59:36.972Z,28.60
2023-03-31T22:02:08.613Z,42.40
2023-03-31T22:04:40.444Z,44.20
2023-03-31T22:07:14.443Z,25.10
2023-03-31T22:09:46.066Z,32.10
2023-03-31T22:12:17.663Z,27.10
2023-03-31T22:14:49.256Z,27.10
2023-03-31T22:17:21.176Z,26.20
2023-03-31T22:19:53.088Z,27.30
2023-03-31T22:22:24.851Z,22.60
2023-03-31T22:24:56.478Z,26.80
2023-03-31T22:27:28.122Z,25.50
2023-03-31T22:30:00.867Z,21.10
2023-03-31T22:32:32.508Z,26.90
2023-03-31T22:35:04.293Z,25.70
2023-03-31T22:37:36.392Z,16.50
2023-03-31T22:40:08.859Z,25.30
2023-03-31T22:42:40.435Z,24.60
2023-03-31T22:45:12.057Z,16.50
2023-03-31T22:47:43.687Z,23.50
2023-03-31T22:50:15.700Z,24.90
2023-03-31T22:52:47.414Z,20.20
2023-03-31T22:55:19.004Z,21.00
2023-03-31T22:57:50.830Z,19.90
2023-03-31T23:00:22.642Z,16.70
2023-03-31T23:02:54.307Z,15.00
2023-03-31T23:05:27.046Z,13.40
2023-03-31T23:07:58.690Z,14.70
2023-03-31T23:10:32.096Z,15.80
2023-03-31T23:13:05.337Z,14.10
2023-03-31T23:15:37.075Z,12.10
2023-03-31T23:18:08.752Z,14.10
2023-03-31T23:20:41.057Z,16.70
2023-03-31T23:23:12.650Z,12.00
2023-03-31T23:25:44.298Z,15.30
2023-03-31T23:28:16.809Z,15.40
2023-03-31T23:30:56.839Z,12.60
2023-03-31T23:33:29.309Z,15.00
2023-03-31T23:36:06.079Z,11.50
2023-03-31T23:38:37.734Z,11.80
2023-03-31T23:41:09.954Z,9.20
2023-03-31T23:43:41.914Z,12.40
2023-03-31T23:46:13.726Z,14.80
2023-03-31T23:48:45.557Z,13.30
2023-03-31T23:51:17.793Z,11.30
2023-03-31T23:53:50.464Z,31.70
2023-03-31T23:56:22.545Z,17.70
2023-03-31T23:58:54.673Z,36.50
